Time;durP1;ratioP1;P1;durP2;ratioP2;P2;SDS_P1;SDS_P2;PMS_P1;PMS_P2;Temp;Humidity;BMP_temperature;BMP_pressure;BME280_temperature;BME280_humidity;BME280_pressure;Samples;Min_cycle;Max_cycle;Signal;HPM_P1;HPM_P2
2023/12/14 00:00:37;;;;;;;16.20;11.23;;;;;;;6.37;100.00;100854.06;5072628;28;20085;-70
2023/12/14 00:03:03;;;;;;;16.20;11.48;;;;;;;6.35;100.00;100861.09;5072262;28;20036;-69
2023/12/14 00:05:28;;;;;;;19.25;12.35;;;;;;;6.34;100.00;100876.88;5071224;28;20086;-69
2023/12/14 00:07:53;;;;;;;18.95;12.57;;;;;;;6.31;100.00;100874.28;5070946;28;20124;-69
2023/12/14 00:10:19;;;;;;;17.83;13.20;;;;;;;6.27;100.00;100888.31;5072330;28;20102;-69
2023/12/14 00:12:45;;;;;;;19.17;13.80;;;;;;;6.21;100.00;100894.47;5072354;28;20093;-69
2023/12/14 00:15:10;;;;;;;18.35;12.82;;;;;;;6.18;100.00;100891.84;5070984;28;20017;-69
2023/12/14 00:17:36;;;;;;;20.85;14.57;;;;;;;6.15;100.00;100902.38;5070827;28;20032;-69
2023/12/14 00:20:02;;;;;;;19.75;14.15;;;;;;;6.12;100.00;100903.25;5071984;28;20059;-69
2023/12/14 00:22:28;;;;;;;20.45;13.65;;;;;;;6.12;100.00;100911.13;5072094;28;20040;-69
2023/12/14 00:24:53;;;;;;;20.40;15.60;;;;;;;6.08;100.00;100908.50;5071310;28;20177;-69
2023/12/14 00:27:19;;;;;;;24.23;14.88;;;;;;;6.07;100.00;100927.81;5072084;28;20045;-69
2023/12/14 00:29:45;;;;;;;24.45;15.55;;;;;;;6.02;100.00;100928.69;5070989;28;20076;-69
2023/12/14 00:32:10;;;;;;;24.55;15.82;;;;;;;6.02;100.00;100946.22;5072024;28;20036;-69
2023/12/14 00:34:36;;;;;;;25.95;16.67;;;;;;;5.96;100.00;100944.47;5071882;28;20113;-69
2023/12/14 00:37:02;;;;;;;21.45;15.55;;;;;;;5.93;100.00;100948.81;5070841;28;20024;-69
2023/12/14 00:39:27;;;;;;;24.05;16.27;;;;;;;5.89;100.00;100961.09;5053453;28;20043;-69
2023/12/14 00:41:53;;;;;;;22.77;15.35;;;;;;;5.88;100.00;100971.59;5070361;28;20068;-69
2023/12/14 00:44:18;;;;;;;23.33;15.07;;;;;;;5.81;100.00;100973.34;5071006;28;20094;-69
2023/12/14 00:46:44;;;;;;;20.92;14.00;;;;;;;5.77;100.00;100975.13;5053629;28;20059;-69
2023/12/14 00:49:09;;;;;;;24.05;14.63;;;;;;;5.75;100.00;100979.47;5071810;28;20040;-69
2023/12/14 00:51:34;;;;;;;19.00;13.38;;;;;;;5.72;100.00;100991.75;5067070;28;20044;-69
2023/12/14 00:54:00;;;;;;;17.55;12.35;;;;;;;5.65;100.00;100987.38;5068886;28;20048;-69
2023/12/14 00:56:25;;;;;;;17.85;12.95;;;;;;;5.59;100.00;100996.13;5071628;28;20044;-69
2023/12/14 00:58:51;;;;;;;17.67;11.70;;;;;;;5.56;100.00;101001.34;5070142;28;20068;-69
2023/12/14 01:01:16;;;;;;;16.35;11.57;;;;;;;5.53;100.00;101006.63;5070183;28;20040;-69
2023/12/14 01:03:42;;;;;;;16.52;11.75;;;;;;;5.51;100.00;100998.72;5071567;28;20045;-69
2023/12/14 01:06:07;;;;;;;17.65;12.38;;;;;;;5.48;100.00;101008.38;5070170;28;20048;-68
2023/12/14 01:08:33;;;;;;;18.30;12.25;;;;;;;5.43;100.00;101010.97;5071670;28;20028;-69
2023/12/14 01:10:58;;;;;;;17.00;10.95;;;;;;;5.39;100.00;101006.63;5053565;28;20040;-68
2023/12/14 01:13:24;;;;;;;17.42;12.15;;;;;;;5.38;100.00;101012.72;5053352;28;20552;-68
2023/12/14 01:15:49;;;;;;;16.42;11.15;;;;;;;5.36;100.00;101010.09;5071765;28;20460;-70
2023/12/14 01:18:15;;;;;;;15.73;11.45;;;;;;;5.36;100.00;101028.47;5071194;28;20462;-71
2023/12/14 01:20:41;;;;;;;18.33;11.48;;;;;;;5.36;100.00;101031.09;5071582;28;20407;-71
2023/12/14 01:23:09;;;;;;;16.48;11.95;;;;;;;5.34;100.00;101038.13;5071477;28;20127;-71
2023/12/14 01:25:35;;;;;;;16.60;11.70;;;;;;;5.33;100.00;101036.34;5071098;28;20567;-71
2023/12/14 01:28:00;;;;;;;16.75;11.27;;;;;;;5.33;100.00;101051.22;5071560;28;20107;-71
2023/12/14 01:30:26;;;;;;;13.90;10.98;;;;;;;5.32;100.00;101062.63;5071354;28;20105;-71
2023/12/14 01:32:51;;;;;;;18.05;11.57;;;;;;;5.30;100.00;101057.34;5071485;28;20028;-71
2023/12/14 01:35:16;;;;;;;19.38;12.18;;;;;;;5.27;100.00;101065.22;5071278;28;20441;-71
2023/12/14 01:37:42;;;;;;;16.25;12.48;;;;;;;5.23;100.00;101059.94;5071220;28;20475;-71
2023/12/14 01:40:08;;;;;;;16.77;12.05;;;;;;;5.20;100.00;101055.56;5071352;28;20399;-71
2023/12/14 01:42:33;;;;;;;15.77;11.82;;;;;;;5.20;100.00;101060.81;5069844;28;20404;-71
2023/12/14 01:44:59;;;;;;;19.38;11.75;;;;;;;5.18;100.00;101066.06;5068947;28;20060;-70
2023/12/14 01:47:24;;;;;;;16.23;11.38;;;;;;;5.18;100.00;101073.06;5069550;28;20493;-71
2023/12/14 01:49:50;;;;;;;17.85;12.68;;;;;;;5.15;100.00;101079.16;5069774;28;20153;-71
2023/12/14 01:52:15;;;;;;;19.38;12.18;;;;;;;5.17;100.00;101085.31;5074913;28;20084;-71
2023/12/14 01:54:41;;;;;;;16.38;12.35;;;;;;;5.16;100.00;101082.66;5074783;28;20116;-71
2023/12/14 01:57:06;;;;;;;17.50;12.63;;;;;;;5.15;100.00;101099.31;5073793;28;20127;-71
2023/12/14 01:59:32;;;;;;;18.85;12.13;;;;;;;5.13;100.00;101095.78;5074761;28;20039;-71
2023/12/14 02:01:57;;;;;;;17.98;12.38;;;;;;;5.11;100.00;101102.78;5074832;28;20501;-71
2023/12/14 02:04:25;;;;;;;16.50;12.10;;;;;;;5.10;100.00;101114.16;5074703;28;20094;-71
2023/12/14 02:06:50;;;;;;;19.30;12.73;;;;;;;5.10;100.00;101114.16;5075041;28;20573;-71
2023/12/14 02:09:16;;;;;;;19.48;12.43;;;;;;;5.08;100.00;101116.75;5073404;28;20066;-70
2023/12/14 02:11:41;;;;;;;18.77;12.32;;;;;;;5.07;100.00;101117.66;5074670;28;20067;-71
2023/12/14 02:14:09;;;;;;;18.67;12.48;;;;;;;5.11;100.00;101129.91;5073356;28;20072;-70
2023/12/14 02:16:38;;;;;;;18.35;11.60;;;;;;;5.10;100.00;101141.28;5074577;28;20126;-71
2023/12/14 02:19:04;;;;;;;17.67;12.25;;;;;;;5.09;100.00;101136.88;5074517;28;20093;-71
2023/12/14 02:21:29;;;;;;;19.70;13.77;;;;;;;5.09;100.00;101144.75;5073243;28;20124;-71
2023/12/14 02:23:55;;;;;;;19.90;13.43;;;;;;;5.09;100.00;101152.63;5074481;28;20422;-71
2023/12/14 02:26:20;;;;;;;22.67;14.13;;;;;;;5.06;100.00;101152.63;5072934;28;20113;-71
2023/12/14 02:28:46;;;;;;;18.17;12.82;;;;;;;5.04;100.00;101159.59;5056410;28;20033;-71
2023/12/14 02:31:11;;;;;;;18.58;12.57;;;;;;;5.02;100.00;101161.38;5073075;28;20041;-71
2023/12/14 02:33:36;;;;;;;18.60;13.15;;;;;;;5.02;100.00;101169.25;5072973;28;20052;-70
2023/12/14 02:36:03;;;;;;;21.83;13.77;;;;;;;5.03;100.00;101170.13;5072960;28;20028;-70
2023/12/14 02:38:29;;;;;;;20.92;13.48;;;;;;;5.01;100.00;101179.72;5074267;28;20041;-68
2023/12/14 02:40:54;;;;;;;20.48;13.18;;;;;;;5.00;100.00;101186.72;5073990;28;20047;-69
2023/12/14 02:43:20;;;;;;;19.02;12.00;;;;;;;4.97;100.00;101181.47;5073170;28;20123;-69
2023/12/14 02:45:46;;;;;;;18.10;12.40;;;;;;;4.97;100.00;101186.72;5066326;28;20525;-69
2023/12/14 02:48:12;;;;;;;19.35;12.77;;;;;;;4.96;100.00;101191.06;5073859;28;20044;-68
2023/12/14 02:50:37;;;;;;;18.08;12.23;;;;;;;4.94;100.00;101195.41;5072605;28;20656;-69
2023/12/14 02:53:03;;;;;;;17.38;12.73;;;;;;;4.94;100.00;101198.03;5073757;28;20067;-69
2023/12/14 02:55:28;;;;;;;16.20;12.05;;;;;;;4.95;100.00;101191.94;5074078;28;20115;-68
2023/12/14 02:57:53;;;;;;;17.63;12.27;;;;;;;4.94;100.00;101202.41;5054663;28;20098;-68
2023/12/14 03:00:19;;;;;;;18.15;12.13;;;;;;;4.94;100.00;101199.78;5073890;28;20186;-68
2023/12/14 03:02:45;;;;;;;17.38;12.43;;;;;;;4.96;100.00;101219.06;5073279;28;20047;-69
2023/12/14 03:05:10;;;;;;;17.25;11.48;;;;;;;4.96;100.00;101217.31;5073721;28;20128;-68
2023/12/14 03:07:36;;;;;;;17.67;12.48;;;;;;;4.94;100.00;101221.66;5071050;28;20133;-68
2023/12/14 03:10:03;;;;;;;18.13;12.75;;;;;;;4.93;100.00;101226.91;5055572;28;20046;-68
2023/12/14 03:12:28;;;;;;;18.38;12.80;;;;;;;4.90;100.00;101226.91;5072452;28;20044;-68
2023/12/14 03:14:53;;;;;;;17.08;11.90;;;;;;;4.90;100.00;101230.41;5073495;28;20498;-68
2023/12/14 03:17:19;;;;;;;18.08;12.60;;;;;;;4.89;100.00;101233.00;5073545;28;20023;-69
2023/12/14 03:19:44;;;;;;;17.63;13.23;;;;;;;4.87;100.00;101230.38;5073042;28;20040;-69
2023/12/14 03:22:10;;;;;;;19.77;13.15;;;;;;;4.88;100.00;101234.75;5072244;28;20047;-69
2023/12/14 03:24:36;;;;;;;16.10;12.52;;;;;;;4.84;100.00;101232.97;5072685;28;20098;-69
2023/12/14 03:27:02;;;;;;;16.30;11.68;;;;;;;4.83;100.00;101233.84;5073392;28;20113;-69
2023/12/14 03:29:28;;;;;;;16.58;11.98;;;;;;;4.84;100.00;101235.56;5072941;28;20037;-69
2023/12/14 03:31:57;;;;;;;17.58;12.57;;;;;;;4.82;100.00;101239.97;5051856;28;20040;-69
2023/12/14 03:34:23;;;;;;;16.27;12.18;;;;;;;4.82;100.00;101234.72;5067082;28;20178;-69
2023/12/14 03:36:49;;;;;;;16.27;12.60;;;;;;;4.84;100.00;101243.44;5073139;28;20056;-69
2023/12/14 03:39:16;;;;;;;19.65;12.05;;;;;;;4.84;100.00;101246.06;5073038;28;20076;-69
2023/12/14 03:41:41;;;;;;;17.52;12.27;;;;;;;4.84;100.00;101242.56;5072730;28;20041;-69
2023/12/14 03:44:07;;;;;;;14.77;11.82;;;;;;;4.83;100.00;101248.72;5069803;28;20040;-69
2023/12/14 03:46:34;;;;;;;15.30;11.93;;;;;;;4.80;100.00;101244.31;5072536;28;20040;-69
2023/12/14 03:48:59;;;;;;;17.80;12.63;;;;;;;4.81;100.00;101247.81;5051733;28;20037;-69
2023/12/14 03:51:25;;;;;;;16.85;12.88;;;;;;;4.79;100.00;101253.03;5086981;28;20039;-69
2023/12/14 03:53:50;;;;;;;16.02;11.50;;;;;;;4.80;100.00;101260.06;5072328;28;20119;-69
2023/12/14 03:56:16;;;;;;;16.35;12.13;;;;;;;4.79;100.00;101262.66;5071497;28;20036;-69
2023/12/14 03:58:41;;;;;;;15.55;12.32;;;;;;;4.77;100.00;101264.38;5057161;28;20522;-69
2023/12/14 04:01:07;;;;;;;17.75;12.45;;;;;;;4.78;100.00;101266.16;5072559;28;20078;-69
2023/12/14 04:03:33;;;;;;;15.35;11.85;;;;;;;4.77;100.00;101267.88;5072360;28;20051;-69
2023/12/14 04:05:58;;;;;;;16.33;12.65;;;;;;;4.77;100.00;101274.88;5071023;28;20043;-69
2023/12/14 04:08:24;;;;;;;16.98;11.45;;;;;;;4.74;100.00;101273.09;5072274;28;20052;-69
2023/12/14 04:10:49;;;;;;;16.25;12.05;;;;;;;4.73;100.00;101276.59;5072251;28;20032;-69
2023/12/14 04:13:15;;;;;;;17.73;12.65;;;;;;;4.71;100.00;101265.22;5070359;28;20418;-68
2023/12/14 04:15:40;;;;;;;16.17;12.20;;;;;;;4.71;100.00;101271.34;5070844;28;20044;-68
2023/12/14 04:18:08;;;;;;;17.48;12.98;;;;;;;4.71;100.00;101270.47;5072022;28;20047;-69
2023/12/14 04:20:33;;;;;;;16.65;13.18;;;;;;;4.70;100.00;101280.09;5072207;28;20101;-69
2023/12/14 04:22:59;;;;;;;18.42;12.95;;;;;;;4.68;100.00;101278.31;5072110;28;20032;-69
2023/12/14 04:25:24;;;;;;;17.17;12.13;;;;;;;4.71;100.00;101291.44;5050403;28;20064;-69
2023/12/14 04:27:50;;;;;;;17.65;13.35;;;;;;;4.71;100.00;101294.06;5070682;28;20090;-69
2023/12/14 04:30:15;;;;;;;15.70;12.73;;;;;;;4.71;100.00;101308.06;5071933;28;20048;-69
2023/12/14 04:32:41;;;;;;;16.55;12.57;;;;;;;4.69;100.00;101307.16;5071796;28;20016;-69
2023/12/14 04:35:07;;;;;;;17.55;13.55;;;;;;;4.74;100.00;101321.22;5072031;28;20115;-69
2023/12/14 04:37:32;;;;;;;16.48;13.00;;;;;;;4.72;100.00;101327.31;5071593;28;20052;-69
2023/12/14 04:39:58;;;;;;;18.55;13.27;;;;;;;4.74;100.00;101331.69;5072046;28;20135;-69
2023/12/14 04:42:23;;;;;;;19.20;13.55;;;;;;;4.74;100.00;101336.94;5071849;28;20040;-69
2023/12/14 04:44:49;;;;;;;17.25;12.57;;;;;;;4.75;100.00;101337.84;5070418;28;20062;-69
2023/12/14 04:47:14;;;;;;;18.85;13.70;;;;;;;4.74;100.00;101343.94;5071576;28;20067;-69
2023/12/14 04:49:40;;;;;;;20.80;13.93;;;;;;;4.74;100.00;101354.44;5071654;28;20055;-69
2023/12/14 04:52:05;;;;;;;20.05;14.50;;;;;;;4.71;100.00;101355.28;5071682;28;20413;-69
2023/12/14 04:54:31;;;;;;;17.52;13.27;;;;;;;4.74;100.00;101349.19;5071522;28;20047;-69
2023/12/14 04:56:57;;;;;;;16.92;13.18;;;;;;;4.75;100.00;101350.97;5068628;28;20491;-69
2023/12/14 04:59:22;;;;;;;15.15;11.85;;;;;;;4.76;100.00;101352.72;5063553;28;20048;-69
2023/12/14 05:01:48;;;;;;;17.52;12.52;;;;;;;4.74;100.00;101360.56;5070174;28;20048;-69
2023/12/14 05:04:13;;;;;;;15.45;11.73;;;;;;;4.74;100.00;101373.69;5071452;28;20040;-69
2023/12/14 05:06:39;;;;;;;17.48;12.40;;;;;;;4.74;100.00;101376.31;5070357;28;20072;-69
2023/12/14 05:09:06;;;;;;;18.67;13.18;;;;;;;4.76;100.00;101381.59;5071913;28;20016;-69
2023/12/14 05:11:32;;;;;;;20.73;13.00;;;;;;;4.78;100.00;101385.09;5071445;28;20128;-69
2023/12/14 05:13:57;;;;;;;21.67;12.70;;;;;;;4.79;100.00;101397.34;5070100;28;20115;-69
2023/12/14 05:16:26;;;;;;;15.20;12.45;;;;;;;4.78;100.00;101394.72;5071660;28;20090;-69
2023/12/14 05:18:56;;;;;;;16.52;13.30;;;;;;;4.78;100.00;101407.84;5053017;28;20041;-69
2023/12/14 05:21:22;;;;;;;17.50;12.80;;;;;;;4.78;100.00;101413.09;5071531;28;20040;-69
2023/12/14 05:23:48;;;;;;;18.20;12.85;;;;;;;4.77;100.00;101419.19;5053180;28;20067;-69
2023/12/14 05:26:13;;;;;;;18.95;13.35;;;;;;;4.73;100.00;101411.28;5064632;28;20050;-69
2023/12/14 05:28:39;;;;;;;17.70;13.88;;;;;;;4.73;100.00;101423.53;5074086;28;20471;-70
2023/12/14 05:31:05;;;;;;;17.67;13.68;;;;;;;4.74;100.00;101430.53;5075413;28;20058;-69
2023/12/14 05:33:31;;;;;;;18.45;13.85;;;;;;;4.74;100.00;101434.03;5074265;28;20115;-69
2023/12/14 05:35:56;;;;;;;16.42;13.02;;;;;;;4.73;100.00;101441.91;5075241;28;20029;-69
2023/12/14 05:38:22;;;;;;;18.58;13.90;;;;;;;4.74;100.00;101448.91;5057463;28;20387;-69
2023/12/14 05:40:47;;;;;;;17.08;12.82;;;;;;;4.74;100.00;101451.53;5073842;28;20029;-69
2023/12/14 05:43:13;;;;;;;16.92;13.43;;;;;;;4.73;100.00;101450.66;5071501;28;20544;-70
2023/12/14 05:45:38;;;;;;;17.52;12.82;;;;;;;4.74;100.00;101459.41;5069884;28;20029;-70
2023/12/14 05:48:05;;;;;;;16.30;11.95;;;;;;;4.75;100.00;101463.81;5072054;28;20064;-69
2023/12/14 05:50:31;;;;;;;16.58;13.10;;;;;;;4.74;100.00;101476.00;5073777;28;20047;-69
2023/12/14 05:52:56;;;;;;;18.08;12.35;;;;;;;4.73;100.00;101481.25;5073199;28;20502;-69
2023/12/14 05:55:22;;;;;;;14.23;11.95;;;;;;;4.71;100.00;101493.47;5075102;28;20028;-69
2023/12/14 05:57:48;;;;;;;16.45;12.10;;;;;;;4.70;100.00;101497.84;5064752;28;20045;-69
2023/12/14 06:00:14;;;;;;;15.70;12.13;;;;;;;4.70;100.00;101502.22;5056277;28;20029;-69
2023/12/14 06:02:39;;;;;;;14.38;12.07;;;;;;;4.72;100.00;101510.97;5074659;28;20037;-69
2023/12/14 06:05:06;;;;;;;22.80;13.35;;;;;;;4.71;100.00;101510.09;5074685;28;20039;-69
2023/12/14 06:07:32;;;;;;;15.75;11.77;;;;;;;4.69;100.00;101503.94;5074882;28;20035;-69
2023/12/14 06:09:58;;;;;;;15.13;11.52;;;;;;;4.72;100.00;101514.50;5074493;28;20475;-69
2023/12/14 06:12:23;;;;;;;16.13;12.25;;;;;;;4.71;100.00;101509.22;5074725;28;20035;-69
2023/12/14 06:14:49;;;;;;;15.93;11.68;;;;;;;4.71;100.00;101519.72;5074581;28;20037;-69
2023/12/14 06:17:15;;;;;;;16.35;12.68;;;;;;;4.69;100.00;101518.81;5073378;28;20123;-69
2023/12/14 06:19:41;;;;;;;16.13;11.93;;;;;;;4.68;100.00;101515.31;5073569;28;20215;-69
2023/12/14 06:22:07;;;;;;;15.80;11.32;;;;;;;4.70;100.00;101526.72;5073941;28;20094;-69
2023/12/14 06:24:32;;;;;;;17.95;13.35;;;;;;;4.71;100.00;101527.59;5074536;28;20109;-69
2023/12/14 06:26:58;;;;;;;16.20;12.70;;;;;;;4.73;100.00;101536.34;5065040;28;20036;-69
2023/12/14 06:29:23;;;;;;;15.25;12.20;;;;;;;4.71;100.00;101544.19;5056256;28;20107;-69
2023/12/14 06:31:49;;;;;;;19.10;13.80;;;;;;;4.70;100.00;101541.56;5074389;28;20043;-69
2023/12/14 06:34:14;;;;;;;20.80;13.82;;;;;;;4.70;100.00;101549.44;5054215;28;20094;-69
2023/12/14 06:36:44;;;;;;;18.38;12.43;;;;;;;4.68;100.00;101554.66;5073663;28;20083;-70
2023/12/14 06:39:10;;;;;;;19.63;14.10;;;;;;;4.68;100.00;101553.78;5074235;28;20028;-69
2023/12/14 06:41:36;;;;;;;17.20;13.68;;;;;;;4.68;100.00;101561.66;5072693;28;20036;-69
2023/12/14 06:44:02;;;;;;;18.17;13.68;;;;;;;4.67;100.00;101565.13;5071823;28;20119;-69
2023/12/14 06:46:28;;;;;;;24.10;13.35;;;;;;;4.67;100.00;101562.50;5072740;28;20039;-69
2023/12/14 06:48:53;;;;;;;23.55;14.52;;;;;;;4.66;100.00;101560.75;5074063;28;20013;-69
2023/12/14 06:51:19;;;;;;;20.50;13.73;;;;;;;4.65;100.00;101574.72;5073437;28;20364;-69
2023/12/14 06:53:46;;;;;;;23.58;13.52;;;;;;;4.61;100.00;101576.41;5073937;28;20158;-69
2023/12/14 06:56:11;;;;;;;25.77;13.48;;;;;;;4.61;100.00;101581.66;5072876;28;20037;-69
2023/12/14 06:58:38;;;;;;;26.88;13.65;;;;;;;4.59;100.00;101580.75;5072332;28;20036;-69
2023/12/14 07:01:04;;;;;;;21.88;13.18;;;;;;;4.58;100.00;101591.25;5073594;28;20391;-69
2023/12/14 07:03:30;;;;;;;22.45;13.82;;;;;;;4.57;100.00;101598.22;5073611;28;20043;-69
2023/12/14 07:05:55;;;;;;;21.38;13.45;;;;;;;4.56;100.00;101609.56;5072522;28;20032;-69
2023/12/14 07:08:21;;;;;;;20.30;12.75;;;;;;;4.56;100.00;101600.81;5054292;28;20040;-69
2023/12/14 07:10:46;;;;;;;18.25;12.77;;;;;;;4.54;100.00;101603.41;5073445;28;20483;-70
2023/12/14 07:13:12;;;;;;;20.83;11.93;;;;;;;4.55;100.00;101606.91;5072386;28;20436;-69
2023/12/14 07:15:38;;;;;;;22.92;12.82;;;;;;;4.56;100.00;101613.94;5073074;28;20037;-69
2023/12/14 07:18:04;;;;;;;19.25;13.23;;;;;;;4.55;100.00;101615.69;5051477;28;20064;-70
2023/12/14 07:20:29;;;;;;;21.20;13.95;;;;;;;4.53;100.00;101626.16;5049919;28;20034;-69
2023/12/14 07:22:55;;;;;;;21.30;12.20;;;;;;;4.56;100.00;101633.19;5071094;28;20036;-70
2023/12/14 07:25:20;;;;;;;19.58;11.40;;;;;;;4.55;100.00;101638.38;5068149;28;20063;-69
2023/12/14 07:27:46;;;;;;;17.05;11.10;;;;;;;4.53;100.00;101646.25;5049860;28;20087;-69
2023/12/14 07:30:13;;;;;;;21.08;10.63;;;;;;;4.53;100.00;101648.88;5071975;28;20068;-69
2023/12/14 07:32:38;;;;;;;16.58;10.77;;;;;;;4.53;100.00;101656.75;5071638;28;20032;-69
2023/12/14 07:35:04;;;;;;;19.25;12.30;;;;;;;4.49;100.00;101655.81;5088634;28;20020;-70
2023/12/14 07:37:30;;;;;;;20.75;11.73;;;;;;;4.47;100.00;101647.03;5073143;28;20093;-69
2023/12/14 07:39:55;;;;;;;16.90;10.95;;;;;;;4.51;100.00;101658.47;5072436;28;20045;-69
2023/12/14 07:42:20;;;;;;;14.38;9.90;;;;;;;4.52;100.00;101657.59;5071649;28;20189;-69
2023/12/14 07:44:46;;;;;;;15.35;9.73;;;;;;;4.50;100.00;101668.06;5071508;28;20119;-69
2023/12/14 07:47:12;;;;;;;13.43;8.85;;;;;;;4.47;100.00;101675.88;5071664;28;20080;-69
2023/12/14 07:49:37;;;;;;;15.57;9.18;;;;;;;4.46;100.00;101684.59;5071500;28;20032;-69
2023/12/14 07:52:03;;;;;;;15.73;9.10;;;;;;;4.44;100.00;101691.56;5064034;28;20474;-70
2023/12/14 07:54:29;;;;;;;12.75;7.93;;;;;;;4.41;100.00;101688.91;5070681;28;20036;-70
2023/12/14 07:56:54;;;;;;;13.05;8.98;;;;;;;4.41;100.00;101694.13;5070080;28;20043;-71
2023/12/14 07:59:20;;;;;;;14.40;8.30;;;;;;;4.41;100.00;101691.53;5070372;28;20444;-70
2023/12/14 08:01:46;;;;;;;10.85;8.25;;;;;;;4.40;100.00;101696.72;5069508;28;20079;-70
2023/12/14 08:04:12;;;;;;;14.73;8.25;;;;;;;4.39;100.00;101702.84;5061523;28;20040;-70
2023/12/14 08:06:41;;;;;;;10.75;7.95;;;;;;;4.39;100.00;101700.22;5071210;28;20043;-69
2023/12/14 08:09:07;;;;;;;11.20;8.20;;;;;;;4.38;100.00;101712.44;5074009;28;20372;-70
2023/12/14 08:11:33;;;;;;;13.35;7.82;;;;;;;4.40;100.00;101715.09;5068320;28;20032;-70
2023/12/14 08:13:58;;;;;;;12.95;8.35;;;;;;;4.38;100.00;101712.44;5071612;28;20483;-71
2023/12/14 08:16:24;;;;;;;12.30;8.48;;;;;;;4.38;100.00;101716.81;5060541;28;20244;-70
2023/12/14 08:18:49;;;;;;;10.23;8.00;;;;;;;4.40;100.00;101708.13;5061086;28;20484;-71
2023/12/14 08:21:15;;;;;;;13.70;9.05;;;;;;;4.38;100.00;101716.81;5063860;28;20032;-71
2023/12/14 08:23:41;;;;;;;12.15;8.68;;;;;;;4.37;100.00;101729.03;5065794;28;20090;-70
2023/12/14 08:26:08;;;;;;;12.02;8.07;;;;;;;4.38;100.00;101736.06;5041770;28;20049;-70
2023/12/14 08:28:34;;;;;;;11.63;7.95;;;;;;;4.35;100.00;101742.97;5061271;28;20029;-70
2023/12/14 08:31:02;;;;;;;12.38;7.97;;;;;;;4.32;100.00;101749.03;5070993;28;20040;-70
2023/12/14 08:33:28;;;;;;;11.63;8.25;;;;;;;4.30;100.00;101756.00;5054475;28;20040;-71
2023/12/14 08:35:55;;;;;;;12.40;8.15;;;;;;;4.29;100.00;101760.34;5072023;28;20028;-70
2023/12/14 08:38:20;;;;;;;10.40;8.18;;;;;;;4.29;100.00;101764.72;5071874;28;20032;-70
2023/12/14 08:40:46;;;;;;;11.90;7.95;;;;;;;4.28;100.00;101774.34;5072002;28;20485;-70
2023/12/14 08:43:12;;;;;;;10.55;8.30;;;;;;;4.28;100.00;101776.06;5068333;28;20116;-70
2023/12/14 08:45:37;;;;;;;10.75;7.80;;;;;;;4.26;100.00;101783.03;5071790;28;20040;-70
2023/12/14 08:48:03;;;;;;;10.95;7.97;;;;;;;4.27;100.00;101784.78;5070433;28;20040;-70
2023/12/14 08:50:29;;;;;;;9.82;7.90;;;;;;;4.27;100.00;101788.28;5068788;28;20089;-70
2023/12/14 08:52:54;;;;;;;9.57;7.88;;;;;;;4.26;100.00;101786.53;5071338;28;20047;-71
2023/12/14 08:55:20;;;;;;;12.88;7.97;;;;;;;4.27;100.00;101788.28;5072068;28;20025;-70
2023/12/14 08:57:45;;;;;;;13.57;8.05;;;;;;;4.26;100.00;101778.66;5064373;28;20049;-70
2023/12/14 09:00:12;;;;;;;14.88;7.78;;;;;;;4.27;100.00;101783.03;5071242;28;20048;-70
2023/12/14 09:02:37;;;;;;;10.73;7.78;;;;;;;4.31;100.00;101795.38;5053546;28;20048;-71
2023/12/14 09:05:04;;;;;;;10.43;7.47;;;;;;;4.32;100.00;101801.47;5071438;28;20033;-70
2023/12/14 09:07:30;;;;;;;10.57;8.52;;;;;;;4.32;100.00;101802.34;5071600;28;20127;-70
2023/12/14 09:09:56;;;;;;;10.23;7.95;;;;;;;4.30;100.00;101808.44;5071346;28;20125;-70
2023/12/14 09:12:21;;;;;;;11.38;8.60;;;;;;;4.30;100.00;101821.53;5070109;28;20394;-69
2023/12/14 09:14:47;;;;;;;12.13;8.27;;;;;;;4.30;100.00;101821.53;5071789;28;20036;-70
2023/12/14 09:17:13;;;;;;;12.77;8.65;;;;;;;4.30;100.00;101821.53;5071457;28;20060;-70
2023/12/14 09:19:38;;;;;;;13.52;8.93;;;;;;;4.31;100.00;101836.44;5070139;28;20549;-70
2023/12/14 09:22:04;;;;;;;10.10;8.05;;;;;;;4.34;100.00;101838.25;5071548;28;20475;-70
2023/12/14 09:24:30;;;;;;;8.82;7.47;;;;;;;4.33;100.00;101842.59;5069401;28;20052;-70
2023/12/14 09:26:55;;;;;;;12.23;8.15;;;;;;;4.32;100.00;101839.06;5062437;28;20052;-70
2023/12/14 09:29:21;;;;;;;10.13;8.18;;;;;;;4.34;100.00;101843.47;5069929;28;20031;-70
2023/12/14 09:31:46;;;;;;;12.90;8.48;;;;;;;4.34;100.00;101853.97;5071126;28;20033;-70
2023/12/14 09:34:13;;;;;;;9.98;7.53;;;;;;;4.33;100.00;101853.09;5069868;28;20386;-71
2023/12/14 09:36:39;;;;;;;12.48;7.68;;;;;;;4.30;100.00;101867.03;5071241;28;20040;-70
2023/12/14 09:39:05;;;;;;;9.38;6.78;;;;;;;4.28;100.00;101873.09;5070972;28;20535;-71
2023/12/14 09:41:31;;;;;;;10.73;7.07;;;;;;;4.27;100.00;101873.94;5071228;28;20041;-70
2023/12/14 09:43:58;;;;;;;12.05;7.60;;;;;;;4.24;100.00;101881.75;5069739;28;20336;-70
2023/12/14 09:46:25;;;;;;;10.55;7.25;;;;;;;4.20;100.00;101888.66;5061659;28;20174;-70
2023/12/14 09:48:51;;;;;;;11.55;7.60;;;;;;;4.17;100.00;101888.59;5070944;28;20114;-71
2023/12/14 09:51:16;;;;;;;10.00;7.28;;;;;;;4.15;100.00;101889.41;5071371;28;20051;-71
2023/12/14 09:53:43;;;;;;;10.98;6.80;;;;;;;4.12;100.00;101895.47;5069975;28;20059;-71
2023/12/14 09:56:08;;;;;;;10.80;7.57;;;;;;;4.12;100.00;101897.22;5071716;28;20036;-71
2023/12/14 09:58:34;;;;;;;11.38;8.23;;;;;;;4.11;100.00;101901.56;5070681;28;20049;-71
2023/12/14 10:01:04;;;;;;;11.63;7.95;;;;;;;4.10;100.00;101905.03;5069385;28;20050;-71
2023/12/14 10:03:32;;;;;;;13.43;7.68;;;;;;;4.13;100.00;101906.84;5070622;28;20104;-71
2023/12/14 10:06:01;;;;;;;14.85;8.07;;;;;;;4.15;100.00;101911.25;5069270;28;20509;-70
2023/12/14 10:08:27;;;;;;;11.80;8.30;;;;;;;4.20;100.00;101930.59;5071025;28;20044;-71
2023/12/14 10:10:55;;;;;;;10.90;7.90;;;;;;;4.22;100.00;101941.13;5069760;28;20136;-71
2023/12/14 10:13:35;;;;;;;14.68;8.07;;;;;;;4.19;100.00;101941.06;5073390;28;20131;-70
2023/12/14 10:16:00;;;;;;;10.75;7.18;;;;;;;4.18;100.00;101934.94;5074768;28;20039;-70
2023/12/14 10:18:26;;;;;;;12.05;7.43;;;;;;;4.18;100.00;101934.94;5073254;28;20048;-71
2023/12/14 10:20:52;;;;;;;12.50;7.88;;;;;;;4.19;100.00;101941.94;5074481;28;20033;-71
2023/12/14 10:23:18;;;;;;;10.35;7.47;;;;;;;4.19;100.00;101941.06;5074206;28;20036;-71
2023/12/14 10:25:44;;;;;;;11.38;7.40;;;;;;;4.18;100.00;101955.00;5065324;28;20052;-70
2023/12/14 10:28:15;;;;;;;11.05;7.50;;;;;;;4.18;100.00;101955.00;5073033;28;20024;-71
2023/12/14 10:30:42;;;;;;;9.57;6.78;;;;;;;4.18;100.00;101958.53;5074590;28;20037;-71
2023/12/14 10:33:08;;;;;;;11.35;8.00;;;;;;;4.18;100.00;101949.75;5074199;28;20103;-70
2023/12/14 10:35:33;;;;;;;10.18;7.32;;;;;;;4.22;100.00;101949.00;5073034;28;20123;-71
2023/12/14 10:38:04;;;;;;;11.18;7.25;;;;;;;4.23;100.00;101946.41;5072682;28;20480;-70
2023/12/14 10:40:30;;;;;;;12.95;7.50;;;;;;;4.28;100.00;101946.53;5056169;28;20110;-71
2023/12/14 10:42:58;;;;;;;15.30;8.02;;;;;;;4.35;100.00;101950.13;5072616;28;20068;-70
2023/12/14 10:45:29;;;;;;;14.82;8.07;;;;;;;4.41;100.00;101948.53;5072216;28;20083;-70
2023/12/14 10:47:58;;;;;;;10.68;7.97;;;;;;;4.45;100.00;101953.00;5074131;28;20062;-71
2023/12/14 10:50:25;;;;;;;9.85;6.97;;;;;;;4.52;100.00;101957.53;5074088;28;20049;-70
2023/12/14 10:52:50;;;;;;;11.10;7.75;;;;;;;4.57;100.00;101960.22;5073854;28;20035;-70
2023/12/14 10:55:32;;;;;;;13.13;7.65;;;;;;;4.62;100.00;101962.94;5072531;28;20468;-71
2023/12/14 10:57:58;;;;;;;;;;;;;;;4.69;100.00;101965.72;5072245;28;20043;-71
2023/12/14 11:00:23;;;;;;;8.77;6.60;;;;;;;4.69;100.00;101962.22;5073625;28;20014;-70
2023/12/14 11:02:49;;;;;;;9.80;7.47;;;;;;;4.66;100.00;101959.53;5073393;28;20170;-70
2023/12/14 11:05:19;;;;;;;11.07;7.75;;;;;;;4.69;100.00;101963.09;5073717;28;20069;-70